sensor_id;sensor_type;location;lat;lon;timestamp;P1;durP1;ratioP1;P2;durP2;ratioP2
4696;SDS011;2362;50.780;0.292;2023-05-07T00:00:16;24.17;;;10.18;;
4696;SDS011;2362;50.780;0.292;2023-05-07T00:02:44;35.65;;;13.73;;
4696;SDS011;2362;50.780;0.292;2023-05-07T00:05:10;31.77;;;11.13;;
4696;SDS011;2362;50.780;0.292;2023-05-07T00:07:36;27.88;;;10.15;;
4696;SDS011;2362;50.780;0.292;2023-05-07T00:10:02;20.67;;;10.38;;
4696;SDS011;2362;50.780;0.292;2023-05-07T00:12:28;26.15;;;10.70;;
4696;SDS011;2362;50.780;0.292;2023-05-07T00:14:56;27.17;;;11.70;;
4696;SDS011;2362;50.780;0.292;2023-05-07T00:17:23;28.00;;;11.57;;
4696;SDS011;2362;50.780;0.292;2023-05-07T00:19:49;32.75;;;12.57;;
4696;SDS011;2362;50.780;0.292;2023-05-07T00:22:15;37.17;;;12.07;;
4696;SDS011;2362;50.780;0.292;2023-05-07T00:24:40;27.58;;;12.50;;
4696;SDS011;2362;50.780;0.292;2023-05-07T00:27:06;34.20;;;14.70;;
4696;SDS011;2362;50.780;0.292;2023-05-07T00:29:32;34.22;;;14.63;;
4696;SDS011;2362;50.780;0.292;2023-05-07T00:31:57;31.00;;;13.90;;
4696;SDS011;2362;50.780;0.292;2023-05-07T00:34:23;37.60;;;15.70;;
4696;SDS011;2362;50.780;0.292;2023-05-07T00:36:49;48.65;;;16.85;;
4696;SDS011;2362;50.780;0.292;2023-05-07T00:39:14;34.15;;;16.83;;
4696;SDS011;2362;50.780;0.292;2023-05-07T00:41:40;33.75;;;17.10;;
4696;SDS011;2362;50.780;0.292;2023-05-07T00:44:06;44.95;;;18.80;;
4696;SDS011;2362;50.780;0.292;2023-05-07T00:46:31;33.70;;;17.58;;
4696;SDS011;2362;50.780;0.292;2023-05-07T00:48:59;48.05;;;19.00;;
4696;SDS011;2362;50.780;0.292;2023-05-07T00:51:25;36.60;;;18.58;;
4696;SDS011;2362;50.780;0.292;2023-05-07T00:53:52;40.58;;;18.55;;
4696;SDS011;2362;50.780;0.292;2023-05-07T00:56:19;39.97;;;18.67;;
4696;SDS011;2362;50.780;0.292;2023-05-07T00:58:48;43.13;;;19.98;;
4696;SDS011;2362;50.780;0.292;2023-05-07T01:01:14;44.72;;;19.50;;
4696;SDS011;2362;50.780;0.292;2023-05-07T01:03:43;39.35;;;19.60;;
4696;SDS011;2362;50.780;0.292;2023-05-07T01:06:08;42.53;;;20.58;;
4696;SDS011;2362;50.780;0.292;2023-05-07T01:08:37;45.33;;;22.27;;
4696;SDS011;2362;50.780;0.292;2023-05-07T01:11:05;50.85;;;22.42;;
4696;SDS011;2362;50.780;0.292;2023-05-07T01:13:32;48.33;;;21.17;;
4696;SDS011;2362;50.780;0.292;2023-05-07T01:15:59;51.42;;;21.20;;
4696;SDS011;2362;50.780;0.292;2023-05-07T01:18:25;48.10;;;22.63;;
4696;SDS011;2362;50.780;0.292;2023-05-07T01:21:16;48.20;;;21.88;;
4696;SDS011;2362;50.780;0.292;2023-05-07T01:24:08;43.75;;;22.58;;
4696;SDS011;2362;50.780;0.292;2023-05-07T01:26:38;55.53;;;22.38;;
4696;SDS011;2362;50.780;0.292;2023-05-07T01:29:04;57.03;;;23.10;;
4696;SDS011;2362;50.780;0.292;2023-05-07T01:31:30;55.75;;;24.00;;
4696;SDS011;2362;50.780;0.292;2023-05-07T01:33:58;49.47;;;21.17;;
4696;SDS011;2362;50.780;0.292;2023-05-07T01:36:25;53.10;;;22.60;;
4696;SDS011;2362;50.780;0.292;2023-05-07T01:38:54;59.30;;;23.20;;
4696;SDS011;2362;50.780;0.292;2023-05-07T01:41:22;42.92;;;22.05;;
4696;SDS011;2362;50.780;0.292;2023-05-07T01:43:48;47.20;;;23.42;;
4696;SDS011;2362;50.780;0.292;2023-05-07T01:46:17;43.40;;;20.48;;
4696;SDS011;2362;50.780;0.292;2023-05-07T01:48:43;55.17;;;22.58;;
4696;SDS011;2362;50.780;0.292;2023-05-07T01:51:11;51.30;;;22.38;;
4696;SDS011;2362;50.780;0.292;2023-05-07T01:53:38;53.03;;;23.77;;
4696;SDS011;2362;50.780;0.292;2023-05-07T01:56:05;69.05;;;24.33;;
4696;SDS011;2362;50.780;0.292;2023-05-07T01:58:31;53.15;;;21.90;;
4696;SDS011;2362;50.780;0.292;2023-05-07T02:00:57;47.22;;;20.80;;
4696;SDS011;2362;50.780;0.292;2023-05-07T02:03:23;54.92;;;23.23;;
4696;SDS011;2362;50.780;0.292;2023-05-07T02:05:48;54.25;;;24.23;;
4696;SDS011;2362;50.780;0.292;2023-05-07T02:08:14;49.25;;;22.27;;
4696;SDS011;2362;50.780;0.292;2023-05-07T02:10:40;55.10;;;22.60;;
4696;SDS011;2362;50.780;0.292;2023-05-07T02:13:06;59.72;;;24.33;;
4696;SDS011;2362;50.780;0.292;2023-05-07T02:15:31;52.20;;;22.73;;
4696;SDS011;2362;50.780;0.292;2023-05-07T02:17:58;51.72;;;22.60;;
4696;SDS011;2362;50.780;0.292;2023-05-07T02:20:25;47.20;;;21.15;;
4696;SDS011;2362;50.780;0.292;2023-05-07T02:22:51;42.63;;;20.67;;
4696;SDS011;2362;50.780;0.292;2023-05-07T02:25:16;49.13;;;21.67;;
4696;SDS011;2362;50.780;0.292;2023-05-07T02:27:42;57.17;;;21.83;;
4696;SDS011;2362;50.780;0.292;2023-05-07T02:30:09;42.50;;;21.35;;
4696;SDS011;2362;50.780;0.292;2023-05-07T02:32:35;52.85;;;24.60;;
4696;SDS011;2362;50.780;0.292;2023-05-07T02:35:01;55.85;;;22.40;;
4696;SDS011;2362;50.780;0.292;2023-05-07T02:37:26;49.85;;;22.20;;
4696;SDS011;2362;50.780;0.292;2023-05-07T02:39:52;48.15;;;21.30;;
4696;SDS011;2362;50.780;0.292;2023-05-07T02:42:17;42.78;;;19.27;;
4696;SDS011;2362;50.780;0.292;2023-05-07T02:44:43;54.47;;;21.92;;
4696;SDS011;2362;50.780;0.292;2023-05-07T02:47:09;50.05;;;18.92;;
4696;SDS011;2362;50.780;0.292;2023-05-07T02:49:35;49.33;;;19.35;;
4696;SDS011;2362;50.780;0.292;2023-05-07T02:52:01;50.47;;;22.73;;
4696;SDS011;2362;50.780;0.292;2023-05-07T02:54:26;51.75;;;20.88;;
4696;SDS011;2362;50.780;0.292;2023-05-07T02:56:52;43.83;;;20.33;;
4696;SDS011;2362;50.780;0.292;2023-05-07T02:59:17;54.47;;;22.30;;
4696;SDS011;2362;50.780;0.292;2023-05-07T03:01:47;53.15;;;22.45;;
4696;SDS011;2362;50.780;0.292;2023-05-07T03:04:13;50.40;;;19.85;;
4696;SDS011;2362;50.780;0.292;2023-05-07T03:06:39;48.05;;;20.88;;
4696;SDS011;2362;50.780;0.292;2023-05-07T03:09:04;55.67;;;20.25;;
4696;SDS011;2362;50.780;0.292;2023-05-07T03:11:30;53.50;;;21.23;;
4696;SDS011;2362;50.780;0.292;2023-05-07T03:13:56;44.38;;;19.95;;
4696;SDS011;2362;50.780;0.292;2023-05-07T03:16:21;44.88;;;17.58;;
4696;SDS011;2362;50.780;0.292;2023-05-07T03:18:47;38.13;;;16.30;;
4696;SDS011;2362;50.780;0.292;2023-05-07T03:21:13;38.80;;;14.85;;
4696;SDS011;2362;50.780;0.292;2023-05-07T03:23:38;37.20;;;14.85;;
4696;SDS011;2362;50.780;0.292;2023-05-07T03:26:04;38.45;;;15.23;;
4696;SDS011;2362;50.780;0.292;2023-05-07T03:28:30;30.98;;;14.52;;
4696;SDS011;2362;50.780;0.292;2023-05-07T03:30:55;26.00;;;12.98;;
4696;SDS011;2362;50.780;0.292;2023-05-07T03:33:22;33.90;;;13.38;;
4696;SDS011;2362;50.780;0.292;2023-05-07T03:35:47;35.85;;;12.60;;
4696;SDS011;2362;50.780;0.292;2023-05-07T03:38:13;25.88;;;12.20;;
4696;SDS011;2362;50.780;0.292;2023-05-07T03:40:38;34.33;;;14.05;;
4696;SDS011;2362;50.780;0.292;2023-05-07T03:43:04;27.20;;;11.57;;
4696;SDS011;2362;50.780;0.292;2023-05-07T03:45:30;28.30;;;12.38;;
4696;SDS011;2362;50.780;0.292;2023-05-07T03:47:56;26.90;;;13.15;;
4696;SDS011;2362;50.780;0.292;2023-05-07T03:50:21;37.05;;;14.57;;
4696;SDS011;2362;50.780;0.292;2023-05-07T03:52:47;33.13;;;13.88;;
4696;SDS011;2362;50.780;0.292;2023-05-07T03:55:13;25.58;;;13.27;;
4696;SDS011;2362;50.780;0.292;2023-05-07T03:57:38;42.75;;;19.17;;
4696;SDS011;2362;50.780;0.292;2023-05-07T04:00:05;50.28;;;20.95;;
4696;SDS011;2362;50.780;0.292;2023-05-07T04:02:32;53.25;;;23.02;;
4696;SDS011;2362;50.780;0.292;2023-05-07T04:04:58;51.67;;;21.63;;
4696;SDS011;2362;50.780;0.292;2023-05-07T04:07:23;55.17;;;22.70;;
4696;SDS011;2362;50.780;0.292;2023-05-07T04:09:49;48.92;;;20.95;;
4696;SDS011;2362;50.780;0.292;2023-05-07T04:12:15;56.72;;;23.35;;
4696;SDS011;2362;50.780;0.292;2023-05-07T04:14:40;64.35;;;24.67;;
4696;SDS011;2362;50.780;0.292;2023-05-07T04:17:06;64.57;;;24.17;;
4696;SDS011;2362;50.780;0.292;2023-05-07T04:19:34;58.00;;;24.15;;
4696;SDS011;2362;50.780;0.292;2023-05-07T04:22:00;42.55;;;21.13;;
4696;SDS011;2362;50.780;0.292;2023-05-07T04:24:26;43.35;;;19.90;;
4696;SDS011;2362;50.780;0.292;2023-05-07T04:26:51;42.63;;;19.75;;
4696;SDS011;2362;50.780;0.292;2023-05-07T04:29:17;45.47;;;21.33;;
4696;SDS011;2362;50.780;0.292;2023-05-07T04:31:43;56.53;;;23.55;;
4696;SDS011;2362;50.780;0.292;2023-05-07T04:34:12;69.93;;;24.20;;
4696;SDS011;2362;50.780;0.292;2023-05-07T04:36:39;75.30;;;25.17;;
4696;SDS011;2362;50.780;0.292;2023-05-07T04:39:04;74.22;;;25.38;;
4696;SDS011;2362;50.780;0.292;2023-05-07T04:41:31;68.88;;;23.45;;
4696;SDS011;2362;50.780;0.292;2023-05-07T04:43:57;64.10;;;24.25;;
4696;SDS011;2362;50.780;0.292;2023-05-07T04:46:24;60.80;;;23.73;;
4696;SDS011;2362;50.780;0.292;2023-05-07T04:48:49;60.20;;;23.60;;
4696;SDS011;2362;50.780;0.292;2023-05-07T04:51:16;65.75;;;23.60;;
4696;SDS011;2362;50.780;0.292;2023-05-07T04:53:41;87.45;;;23.10;;
4696;SDS011;2362;50.780;0.292;2023-05-07T04:56:08;67.28;;;23.13;;
4696;SDS011;2362;50.780;0.292;2023-05-07T04:58:34;66.97;;;21.80;;
4696;SDS011;2362;50.780;0.292;2023-05-07T05:00:59;63.80;;;22.20;;
4696;SDS011;2362;50.780;0.292;2023-05-07T05:03:25;84.38;;;17.63;;
4696;SDS011;2362;50.780;0.292;2023-05-07T05:05:51;70.63;;;19.45;;
4696;SDS011;2362;50.780;0.292;2023-05-07T05:08:17;60.85;;;16.65;;
4696;SDS011;2362;50.780;0.292;2023-05-07T05:10:43;89.65;;;15.80;;
4696;SDS011;2362;50.780;0.292;2023-05-07T05:13:09;42.58;;;15.07;;
4696;SDS011;2362;50.780;0.292;2023-05-07T05:15:37;51.53;;;13.90;;
4696;SDS011;2362;50.780;0.292;2023-05-07T05:18:03;47.75;;;14.77;;
4696;SDS011;2362;50.780;0.292;2023-05-07T05:20:29;32.72;;;12.40;;
4696;SDS011;2362;50.780;0.292;2023-05-07T05:22:55;32.70;;;11.85;;
4696;SDS011;2362;50.780;0.292;2023-05-07T05:25:20;38.90;;;12.43;;
4696;SDS011;2362;50.780;0.292;2023-05-07T05:27:49;40.28;;;11.48;;
4696;SDS011;2362;50.780;0.292;2023-05-07T05:30:14;62.17;;;12.40;;
4696;SDS011;2362;50.780;0.292;2023-05-07T05:32:40;42.00;;;10.43;;
4696;SDS011;2362;50.780;0.292;2023-05-07T05:35:05;26.77;;;9.88;;
4696;SDS011;2362;50.780;0.292;2023-05-07T05:37:31;25.80;;;8.77;;
4696;SDS011;2362;50.780;0.292;2023-05-07T05:42:51;30.70;;;9.38;;
4696;SDS011;2362;50.780;0.292;2023-05-07T05:45:16;28.30;;;9.48;;
4696;SDS011;2362;50.780;0.292;2023-05-07T05:47:42;27.67;;;9.35;;
4696;SDS011;2362;50.780;0.292;2023-05-07T05:50:08;29.00;;;8.93;;
4696;SDS011;2362;50.780;0.292;2023-05-07T05:52:34;29.00;;;9.98;;
4696;SDS011;2362;50.780;0.292;2023-05-07T05:54:59;16.98;;;8.82;;
4696;SDS011;2362;50.780;0.292;2023-05-07T05:57:25;21.30;;;9.38;;
4696;SDS011;2362;50.780;0.292;2023-05-07T06:00:16;19.83;;;8.40;;
4696;SDS011;2362;50.780;0.292;2023-05-07T06:02:43;14.55;;;7.00;;
4696;SDS011;2362;50.780;0.292;2023-05-07T06:05:09;18.65;;;7.88;;
4696;SDS011;2362;50.780;0.292;2023-05-07T06:07:34;15.63;;;6.78;;
4696;SDS011;2362;50.780;0.292;2023-05-07T06:10:03;13.52;;;6.10;;
4696;SDS011;2362;50.780;0.292;2023-05-07T06:12:29;14.50;;;6.18;;
4696;SDS011;2362;50.780;0.292;2023-05-07T06:14:55;12.43;;;6.70;;
4696;SDS011;2362;50.780;0.292;2023-05-07T06:17:20;13.32;;;6.60;;
4696;SDS011;2362;50.780;0.292;2023-05-07T06:19:46;13.93;;;7.50;;
4696;SDS011;2362;50.780;0.292;2023-05-07T06:22:12;12.00;;;6.93;;
4696;SDS011;2362;50.780;0.292;2023-05-07T06:24:37;14.55;;;7.35;;
4696;SDS011;2362;50.780;0.292;2023-05-07T06:27:03;14.15;;;7.88;;
4696;SDS011;2362;50.780;0.292;2023-05-07T06:29:28;12.48;;;7.22;;
4696;SDS011;2362;50.780;0.292;2023-05-07T06:31:56;12.85;;;7.05;;
4696;SDS011;2362;50.780;0.292;2023-05-07T06:34:30;16.08;;;7.85;;
4696;SDS011;2362;50.780;0.292;2023-05-07T06:36:56;15.57;;;7.38;;
4696;SDS011;2362;50.780;0.292;2023-05-07T06:39:22;12.00;;;6.97;;
4696;SDS011;2362;50.780;0.292;2023-05-07T06:41:47;15.48;;;7.32;;
4696;SDS011;2362;50.780;0.292;2023-05-07T06:44:13;12.90;;;7.47;;
4696;SDS011;2362;50.780;0.292;2023-05-07T06:47:03;13.23;;;8.50;;
4696;SDS011;2362;50.780;0.292;2023-05-07T06:49:30;12.82;;;7.57;;
4696;SDS011;2362;50.780;0.292;2023-05-07T06:51:56;18.58;;;8.35;;
4696;SDS011;2362;50.780;0.292;2023-05-07T06:54:22;14.40;;;8.38;;
4696;SDS011;2362;50.780;0.292;2023-05-07T06:56:48;17.38;;;7.40;;
4696;SDS011;2362;50.780;0.292;2023-05-07T06:59:13;12.98;;;7.88;;
4696;SDS011;2362;50.780;0.292;2023-05-07T07:01:39;15.55;;;8.30;;
4696;SDS011;2362;50.780;0.292;2023-05-07T07:04:05;9.95;;;7.22;;
4696;SDS011;2362;50.780;0.292;2023-05-07T07:06:31;10.25;;;7.07;;
4696;SDS011;2362;50.780;0.292;2023-05-07T07:08:57;12.77;;;7.65;;
4696;SDS011;2362;50.780;0.292;2023-05-07T07:11:23;10.10;;;7.65;;
4696;SDS011;2362;50.780;0.292;2023-05-07T07:13:49;14.13;;;8.45;;
4696;SDS011;2362;50.780;0.292;2023-05-07T07:16:15;13.43;;;8.07;;
4696;SDS011;2362;50.780;0.292;2023-05-07T07:18:41;15.18;;;8.27;;
4696;SDS011;2362;50.780;0.292;2023-05-07T07:21:07;10.95;;;7.45;;
4696;SDS011;2362;50.780;0.292;2023-05-07T07:23:32;12.32;;;9.00;;
4696;SDS011;2362;50.780;0.292;2023-05-07T07:25:58;16.60;;;9.77;;
4696;SDS011;2362;50.780;0.292;2023-05-07T07:28:24;19.50;;;10.68;;
4696;SDS011;2362;50.780;0.292;2023-05-07T07:30:49;14.07;;;9.75;;
4696;SDS011;2362;50.780;0.292;2023-05-07T07:33:15;16.73;;;10.82;;
4696;SDS011;2362;50.780;0.292;2023-05-07T07:35:41;23.05;;;11.90;;
4696;SDS011;2362;50.780;0.292;2023-05-07T07:38:07;17.83;;;10.77;;
4696;SDS011;2362;50.780;0.292;2023-05-07T07:40:36;16.42;;;11.63;;
4696;SDS011;2362;50.780;0.292;2023-05-07T07:43:02;19.92;;;12.18;;
4696;SDS011;2362;50.780;0.292;2023-05-07T07:45:28;19.77;;;12.75;;
4696;SDS011;2362;50.780;0.292;2023-05-07T07:47:54;18.83;;;10.93;;
4696;SDS011;2362;50.780;0.292;2023-05-07T07:50:19;19.58;;;12.77;;
4696;SDS011;2362;50.780;0.292;2023-05-07T07:52:45;17.67;;;12.60;;
4696;SDS011;2362;50.780;0.292;2023-05-07T07:55:40;22.23;;;13.73;;
4696;SDS011;2362;50.780;0.292;2023-05-07T07:58:05;20.10;;;13.75;;
4696;SDS011;2362;50.780;0.292;2023-05-07T08:00:31;19.20;;;12.68;;
4696;SDS011;2362;50.780;0.292;2023-05-07T08:02:56;18.80;;;13.98;;
4696;SDS011;2362;50.780;0.292;2023-05-07T08:05:22;19.85;;;13.68;;
4696;SDS011;2362;50.780;0.292;2023-05-07T08:07:48;20.85;;;14.85;;
4696;SDS011;2362;50.780;0.292;2023-05-07T08:10:18;22.20;;;13.18;;
4696;SDS011;2362;50.780;0.292;2023-05-07T08:12:47;18.95;;;13.88;;
4696;SDS011;2362;50.780;0.292;2023-05-07T08:15:14;19.00;;;13.73;;
4696;SDS011;2362;50.780;0.292;2023-05-07T08:17:40;22.67;;;13.45;;
4696;SDS011;2362;50.780;0.292;2023-05-07T08:20:06;20.83;;;14.48;;
4696;SDS011;2362;50.780;0.292;2023-05-07T08:22:34;21.15;;;13.90;;
4696;SDS011;2362;50.780;0.292;2023-05-07T08:25:00;21.27;;;14.45;;
4696;SDS011;2362;50.780;0.292;2023-05-07T08:27:26;21.73;;;13.75;;
4696;SDS011;2362;50.780;0.292;2023-05-07T08:29:52;19.98;;;14.10;;
4696;SDS011;2362;50.780;0.292;2023-05-07T08:32:18;19.80;;;13.50;;
4696;SDS011;2362;50.780;0.292;2023-05-07T08:34:44;21.58;;;13.07;;
4696;SDS011;2362;50.780;0.292;2023-05-07T08:37:09;19.45;;;12.82;;
4696;SDS011;2362;50.780;0.292;2023-05-07T08:39:35;18.92;;;13.00;;
4696;SDS011;2362;50.780;0.292;2023-05-07T08:42:01;20.48;;;12.85;;
4696;SDS011;2362;50.780;0.292;2023-05-07T08:44:30;22.98;;;13.82;;
4696;SDS011;2362;50.780;0.292;2023-05-07T08:46:59;18.27;;;12.88;;
4696;SDS011;2362;50.780;0.292;2023-05-07T08:49:27;21.02;;;13.93;;
4696;SDS011;2362;50.780;0.292;2023-05-07T08:51:53;25.02;;;13.93;;
4696;SDS011;2362;50.780;0.292;2023-05-07T08:54:19;23.63;;;15.07;;
4696;SDS011;2362;50.780;0.292;2023-05-07T08:56:45;25.80;;;14.70;;
4696;SDS011;2362;50.780;0.292;2023-05-07T08:59:11;23.77;;;15.27;;
4696;SDS011;2362;50.780;0.292;2023-05-07T09:01:37;28.20;;;16.45;;
4696;SDS011;2362;50.780;0.292;2023-05-07T09:04:03;29.48;;;15.68;;
4696;SDS011;2362;50.780;0.292;2023-05-07T09:06:30;25.08;;;15.82;;
4696;SDS011;2362;50.780;0.292;2023-05-07T09:08:56;24.45;;;15.25;;
4696;SDS011;2362;50.780;0.292;2023-05-07T09:11:23;28.20;;;16.20;;
4696;SDS011;2362;50.780;0.292;2023-05-07T09:13:53;26.45;;;16.73;;
4696;SDS011;2362;50.780;0.292;2023-05-07T09:16:21;28.08;;;16.90;;
4696;SDS011;2362;50.780;0.292;2023-05-07T09:18:48;27.25;;;17.27;;
4696;SDS011;2362;50.780;0.292;2023-05-07T09:21:17;29.85;;;17.13;;
4696;SDS011;2362;50.780;0.292;2023-05-07T09:23:44;28.05;;;17.35;;
4696;SDS011;2362;50.780;0.292;2023-05-07T09:26:10;29.25;;;17.67;;
4696;SDS011;2362;50.780;0.292;2023-05-07T09:28:39;26.88;;;16.92;;
4696;SDS011;2362;50.780;0.292;2023-05-07T09:31:06;25.08;;;16.63;;
4696;SDS011;2362;50.780;0.292;2023-05-07T09:33:33;27.88;;;16.17;;
4696;SDS011;2362;50.780;0.292;2023-05-07T09:36:06;26.27;;;16.85;;
4696;SDS011;2362;50.780;0.292;2023-05-07T09:38:34;23.50;;;16.05;;
4696;SDS011;2362;50.780;0.292;2023-05-07T09:41:10;26.63;;;16.88;;
4696;SDS011;2362;50.780;0.292;2023-05-07T09:43:37;25.50;;;16.45;;
4696;SDS011;2362;50.780;0.292;2023-05-07T09:46:09;23.20;;;15.20;;
4696;SDS011;2362;50.780;0.292;2023-05-07T09:48:40;23.87;;;15.33;;
4696;SDS011;2362;50.780;0.292;2023-05-07T09:51:25;29.83;;;16.15;;
4696;SDS011;2362;50.780;0.292;2023-05-07T09:53:56;24.65;;;15.85;;
4696;SDS011;2362;50.780;0.292;2023-05-07T09:56:23;21.75;;;15.05;;
4696;SDS011;2362;50.780;0.292;2023-05-07T09:58:50;21.92;;;15.55;;
4696;SDS011;2362;50.780;0.292;2023-05-07T10:01:19;27.52;;;15.93;;
4696;SDS011;2362;50.780;0.292;2023-05-07T10:03:47;24.30;;;15.77;;
4696;SDS011;2362;50.780;0.292;2023-05-07T10:06:15;23.20;;;15.75;;
4696;SDS011;2362;50.780;0.292;2023-05-07T10:08:42;26.30;;;15.82;;
4696;SDS011;2362;50.780;0.292;2023-05-07T10:11:08;28.92;;;15.20;;
4696;SDS011;2362;50.780;0.292;2023-05-07T10:13:34;22.90;;;15.02;;
4696;SDS011;2362;50.780;0.292;2023-05-07T10:16:03;20.00;;;13.07;;
4696;SDS011;2362;50.780;0.292;2023-05-07T10:18:30;22.88;;;13.38;;
4696;SDS011;2362;50.780;0.292;2023-05-07T10:21:02;23.58;;;14.70;;
4696;SDS011;2362;50.780;0.292;2023-05-07T10:23:33;21.90;;;14.13;;
4696;SDS011;2362;50.780;0.292;2023-05-07T10:26:00;21.98;;;14.27;;
4696;SDS011;2362;50.780;0.292;2023-05-07T10:28:28;21.65;;;14.63;;
4696;SDS011;2362;50.780;0.292;2023-05-07T10:33:32;17.52;;;11.55;;
4696;SDS011;2362;50.780;0.292;2023-05-07T10:36:00;17.48;;;11.27;;
4696;SDS011;2362;50.780;0.292;2023-05-07T10:38:29;22.42;;;13.07;;
4696;SDS011;2362;50.780;0.292;2023-05-07T10:40:55;20.17;;;12.65;;
4696;SDS011;2362;50.780;0.292;2023-05-07T10:43:21;19.05;;;12.10;;
4696;SDS011;2362;50.780;0.292;2023-05-07T10:51:31;21.08;;;12.73;;
4696;SDS011;2362;50.780;0.292;2023-05-07T10:56:35;16.25;;;9.52;;
4696;SDS011;2362;50.780;0.292;2023-05-07T11:01:58;12.68;;;8.63;;
4696;SDS011;2362;50.780;0.292;2023-05-07T11:04:28;15.30;;;9.98;;
4696;SDS011;2362;50.780;0.292;2023-05-07T11:15:05;11.40;;;8.43;;
4696;SDS011;2362;50.780;0.292;2023-05-07T11:17:31;10.10;;;7.95;;
4696;SDS011;2362;50.780;0.292;2023-05-07T11:19:59;13.48;;;7.25;;
4696;SDS011;2362;50.780;0.292;2023-05-07T11:25:04;17.75;;;8.73;;
4696;SDS011;2362;50.780;0.292;2023-05-07T11:27:31;14.35;;;9.18;;
4696;SDS011;2362;50.780;0.292;2023-05-07T11:29:57;16.20;;;9.93;;
4696;SDS011;2362;50.780;0.292;2023-05-07T11:32:24;14.52;;;9.35;;
4696;SDS011;2362;50.780;0.292;2023-05-07T11:34:54;11.30;;;8.38;;
4696;SDS011;2362;50.780;0.292;2023-05-07T11:37:20;16.30;;;9.00;;
4696;SDS011;2362;50.780;0.292;2023-05-07T11:39:47;11.57;;;8.23;;
4696;SDS011;2362;50.780;0.292;2023-05-07T11:42:25;12.75;;;8.75;;
4696;SDS011;2362;50.780;0.292;2023-05-07T11:44:54;10.38;;;7.93;;
4696;SDS011;2362;50.780;0.292;2023-05-07T11:47:20;11.90;;;7.85;;
4696;SDS011;2362;50.780;0.292;2023-05-07T11:49:51;10.80;;;7.88;;
4696;SDS011;2362;50.780;0.292;2023-05-07T11:52:18;14.77;;;8.27;;
4696;SDS011;2362;50.780;0.292;2023-05-07T11:54:54;15.70;;;8.55;;
4696;SDS011;2362;50.780;0.292;2023-05-07T11:57:22;10.90;;;8.18;;
4696;SDS011;2362;50.780;0.292;2023-05-07T11:59:52;11.05;;;7.38;;
4696;SDS011;2362;50.780;0.292;2023-05-07T12:02:21;9.38;;;7.32;;
4696;SDS011;2362;50.780;0.292;2023-05-07T12:04:47;9.48;;;6.85;;
4696;SDS011;2362;50.780;0.292;2023-05-07T12:07:13;8.45;;;6.05;;
4696;SDS011;2362;50.780;0.292;2023-05-07T12:09:40;9.43;;;7.57;;
4696;SDS011;2362;50.780;0.292;2023-05-07T12:12:06;8.77;;;6.95;;
4696;SDS011;2362;50.780;0.292;2023-05-07T12:14:32;9.50;;;6.43;;
4696;SDS011;2362;50.780;0.292;2023-05-07T12:17:02;9.25;;;7.22;;
4696;SDS011;2362;50.780;0.292;2023-05-07T12:19:29;12.13;;;7.63;;
4696;SDS011;2362;50.780;0.292;2023-05-07T12:21:55;10.25;;;7.82;;
4696;SDS011;2362;50.780;0.292;2023-05-07T12:24:22;10.70;;;7.90;;
4696;SDS011;2362;50.780;0.292;2023-05-07T12:26:48;11.55;;;8.13;;
4696;SDS011;2362;50.780;0.292;2023-05-07T12:29:14;10.23;;;8.05;;
4696;SDS011;2362;50.780;0.292;2023-05-07T12:31:43;8.75;;;7.45;;
4696;SDS011;2362;50.780;0.292;2023-05-07T12:34:10;9.65;;;8.02;;
4696;SDS011;2362;50.780;0.292;2023-05-07T12:36:37;9.65;;;7.55;;
4696;SDS011;2362;50.780;0.292;2023-05-07T12:39:04;10.45;;;7.68;;
4696;SDS011;2362;50.780;0.292;2023-05-07T12:41:52;11.38;;;8.18;;
4696;SDS011;2362;50.780;0.292;2023-05-07T12:44:22;10.60;;;7.22;;
4696;SDS011;2362;50.780;0.292;2023-05-07T12:46:48;9.82;;;7.78;;
4696;SDS011;2362;50.780;0.292;2023-05-07T12:49:14;12.80;;;7.22;;
4696;SDS011;2362;50.780;0.292;2023-05-07T12:51:40;10.45;;;7.72;;
4696;SDS011;2362;50.780;0.292;2023-05-07T12:54:07;8.60;;;7.40;;
4696;SDS011;2362;50.780;0.292;2023-05-07T12:56:35;15.68;;;9.27;;
4696;SDS011;2362;50.780;0.292;2023-05-07T12:59:01;13.93;;;7.75;;
4696;SDS011;2362;50.780;0.292;2023-05-07T13:01:28;14.13;;;8.20;;
4696;SDS011;2362;50.780;0.292;2023-05-07T13:03:55;12.45;;;6.90;;
4696;SDS011;2362;50.780;0.292;2023-05-07T13:06:21;17.55;;;7.93;;
4696;SDS011;2362;50.780;0.292;2023-05-07T13:08:46;10.35;;;6.80;;
4696;SDS011;2362;50.780;0.292;2023-05-07T13:11:13;11.43;;;8.38;;
4696;SDS011;2362;50.780;0.292;2023-05-07T13:13:39;9.50;;;7.20;;
4696;SDS011;2362;50.780;0.292;2023-05-07T13:16:06;10.02;;;7.78;;
4696;SDS011;2362;50.780;0.292;2023-05-07T13:18:33;13.30;;;8.38;;
4696;SDS011;2362;50.780;0.292;2023-05-07T13:21:02;12.80;;;7.35;;
4696;SDS011;2362;50.780;0.292;2023-05-07T13:23:28;10.27;;;8.57;;
4696;SDS011;2362;50.780;0.292;2023-05-07T13:25:54;10.55;;;8.07;;
4696;SDS011;2362;50.780;0.292;2023-05-07T13:28:21;9.15;;;8.18;;
4696;SDS011;2362;50.780;0.292;2023-05-07T13:30:47;9.45;;;8.02;;
4696;SDS011;2362;50.780;0.292;2023-05-07T13:33:13;11.38;;;8.32;;
4696;SDS011;2362;50.780;0.292;2023-05-07T13:35:39;18.65;;;8.73;;
4696;SDS011;2362;50.780;0.292;2023-05-07T13:38:05;17.08;;;10.82;;
4696;SDS011;2362;50.780;0.292;2023-05-07T13:40:31;19.13;;;10.95;;
4696;SDS011;2362;50.780;0.292;2023-05-07T13:42:57;23.85;;;11.10;;
4696;SDS011;2362;50.780;0.292;2023-05-07T13:45:24;18.73;;;11.35;;
4696;SDS011;2362;50.780;0.292;2023-05-07T13:47:51;18.63;;;11.18;;
4696;SDS011;2362;50.780;0.292;2023-05-07T13:50:17;20.33;;;11.50;;
4696;SDS011;2362;50.780;0.292;2023-05-07T13:52:43;20.55;;;10.60;;
4696;SDS011;2362;50.780;0.292;2023-05-07T13:55:41;22.60;;;12.07;;
4696;SDS011;2362;50.780;0.292;2023-05-07T13:58:07;19.75;;;11.05;;
4696;SDS011;2362;50.780;0.292;2023-05-07T14:00:32;23.85;;;11.25;;
4696;SDS011;2362;50.780;0.292;2023-05-07T14:02:58;27.27;;;11.48;;
4696;SDS011;2362;50.780;0.292;2023-05-07T14:05:23;23.20;;;12.55;;
4696;SDS011;2362;50.780;0.292;2023-05-07T14:07:50;23.80;;;12.00;;
4696;SDS011;2362;50.780;0.292;2023-05-07T14:10:17;23.33;;;12.77;;
4696;SDS011;2362;50.780;0.292;2023-05-07T14:12:44;25.90;;;13.52;;
4696;SDS011;2362;50.780;0.292;2023-05-07T14:15:10;24.35;;;11.50;;
4696;SDS011;2362;50.780;0.292;2023-05-07T14:17:36;25.38;;;12.70;;
4696;SDS011;2362;50.780;0.292;2023-05-07T14:20:02;27.83;;;13.35;;
4696;SDS011;2362;50.780;0.292;2023-05-07T14:22:28;27.52;;;13.70;;
4696;SDS011;2362;50.780;0.292;2023-05-07T14:24:53;37.13;;;13.93;;
4696;SDS011;2362;50.780;0.292;2023-05-07T14:27:19;27.67;;;15.73;;
4696;SDS011;2362;50.780;0.292;2023-05-07T14:30:10;29.08;;;13.95;;
4696;SDS011;2362;50.780;0.292;2023-05-07T14:32:36;25.65;;;14.18;;
4696;SDS011;2362;50.780;0.292;2023-05-07T14:35:02;30.10;;;14.35;;
4696;SDS011;2362;50.780;0.292;2023-05-07T14:37:27;26.23;;;14.00;;
4696;SDS011;2362;50.780;0.292;2023-05-07T14:39:53;27.23;;;14.95;;
4696;SDS011;2362;50.780;0.292;2023-05-07T14:42:19;26.55;;;13.63;;
4696;SDS011;2362;50.780;0.292;2023-05-07T14:44:45;25.45;;;14.32;;
4696;SDS011;2362;50.780;0.292;2023-05-07T14:47:12;34.50;;;15.38;;
4696;SDS011;2362;50.780;0.292;2023-05-07T14:49:38;26.35;;;13.60;;
4696;SDS011;2362;50.780;0.292;2023-05-07T14:52:06;23.92;;;13.15;;
4696;SDS011;2362;50.780;0.292;2023-05-07T14:54:33;22.42;;;13.80;;
4696;SDS011;2362;50.780;0.292;2023-05-07T14:57:00;25.08;;;14.10;;
4696;SDS011;2362;50.780;0.292;2023-05-07T14:59:26;26.23;;;14.05;;
4696;SDS011;2362;50.780;0.292;2023-05-07T15:01:52;28.48;;;13.15;;
4696;SDS011;2362;50.780;0.292;2023-05-07T15:04:18;28.83;;;11.95;;
4696;SDS011;2362;50.780;0.292;2023-05-07T15:06:44;21.67;;;11.48;;
4696;SDS011;2362;50.780;0.292;2023-05-07T15:09:11;39.90;;;12.95;;
4696;SDS011;2362;50.780;0.292;2023-05-07T15:11:37;26.58;;;12.57;;
4696;SDS011;2362;50.780;0.292;2023-05-07T15:14:02;21.75;;;11.60;;
4696;SDS011;2362;50.780;0.292;2023-05-07T15:16:28;25.70;;;12.07;;
4696;SDS011;2362;50.780;0.292;2023-05-07T15:18:54;19.92;;;11.70;;